Time;durP1;ratioP1;P1;durP2;ratioP2;P2;SDS_P1;SDS_P2;PMS_P1;PMS_P2;Temp;Humidity;BMP_temperature;BMP_pressure;BME280_temperature;BME280_humidity;BME280_pressure;Samples;Min_cycle;Max_cycle;Signal;HPM_P1;HPM_P2
2022/12/25 00:00:38;;;;;;;7.22;1.70;;;;;;;11.38;82.84;100521.34;5021665;28;20393;-72
2022/12/25 00:03:05;;;;;;;3.83;2.30;;;;;;;11.37;82.56;100525.97;5047196;28;20397;-72
2022/12/25 00:05:30;;;;;;;5.88;1.60;;;;;;;11.37;82.52;100527.84;5051210;28;20405;-73
2022/12/25 00:07:55;;;;;;;3.93;1.47;;;;;;;11.34;82.99;100526.47;5050864;28;20385;-72
2022/12/25 00:10:21;;;;;;;7.43;2.10;;;;;;;11.32;82.91;100535.91;5039468;28;20812;-72
2022/12/25 00:12:46;;;;;;;2.63;1.47;;;;;;;11.31;82.79;100535.09;5041435;28;20433;-72
2022/12/25 00:15:11;;;;;;;3.83;1.37;;;;;;;11.33;82.86;100538.38;5049695;28;20454;-72
2022/12/25 00:17:37;;;;;;;4.10;1.87;;;;;;;11.35;83.01;100538.13;5051064;28;20409;-72
2022/12/25 00:20:02;;;;;;;3.70;1.43;;;;;;;11.31;83.12;100526.13;5050238;28;20939;-72
2022/12/25 00:22:28;;;;;;;3.37;1.47;;;;;;;11.32;83.26;100522.34;5051045;28;20400;-72
2022/12/25 00:24:53;;;;;;;3.60;1.70;;;;;;;11.33;83.25;100515.84;5046478;28;20435;-72
2022/12/25 00:27:19;;;;;;;4.00;1.90;;;;;;;11.30;83.45;100513.63;5050855;28;20405;-72
2022/12/25 00:29:44;;;;;;;2.27;1.83;;;;;;;11.29;83.30;100512.81;5049679;28;20393;-72
2022/12/25 00:32:09;;;;;;;4.37;2.23;;;;;;;11.28;83.55;100513.88;5050808;28;20748;-72
2022/12/25 00:34:34;;;;;;;5.67;2.33;;;;;;;11.30;83.44;100508.19;5044670;28;20412;-72
2022/12/25 00:37:00;;;;;;;6.73;2.40;;;;;;;11.30;83.44;100508.19;5050667;28;20428;-72
2022/12/25 00:39:25;;;;;;;2.40;2.20;;;;;;;11.30;83.67;100519.03;5049642;28;20408;-72
2022/12/25 00:44:34;;;;;;;7.55;2.88;;;;;;;11.28;83.68;100521.19;5050683;28;20451;-72
2022/12/25 00:47:00;;;;;;;7.87;3.30;;;;;;;11.28;83.78;100523.91;5050486;28;20401;-72
2022/12/25 00:49:25;;;;;;;9.93;4.70;;;;;;;11.29;84.01;100512.00;5035165;28;20502;-72
2022/12/25 00:51:51;;;;;;;6.88;3.42;;;;;;;11.27;83.84;100514.94;5037018;28;20402;-72
2022/12/25 00:54:16;;;;;;;6.85;2.03;;;;;;;11.24;83.76;100520.88;5050562;28;20397;-72
2022/12/25 00:56:42;;;;;;;5.20;1.90;;;;;;;11.20;84.26;100508.03;5049295;28;20823;-72
2022/12/25 00:59:07;;;;;;;2.00;1.63;;;;;;;11.17;84.21;100503.13;5029001;28;20440;-72
2022/12/25 01:01:33;;;;;;;6.65;2.00;;;;;;;11.16;84.27;100502.31;5020154;28;20381;-72
2022/12/25 01:03:58;;;;;;;7.03;1.83;;;;;;;11.17;84.16;100514.78;5044279;28;20493;-72
2022/12/25 01:06:24;;;;;;;5.97;1.90;;;;;;;11.19;84.10;100515.38;5050525;28;20404;-72
2022/12/25 01:11:34;;;;;;;2.85;1.50;;;;;;;11.19;84.09;100530.84;5050385;28;20417;-72
2022/12/25 01:13:59;;;;;;;5.00;2.10;;;;;;;11.10;83.93;100522.25;5050556;28;20429;-72
2022/12/25 01:16:24;;;;;;;6.82;2.78;;;;;;;11.10;84.22;100526.91;5049064;28;20784;-72
2022/12/25 01:18:49;;;;;;;8.03;3.50;;;;;;;11.09;84.44;100526.06;5034659;28;20391;-72
2022/12/25 01:21:17;;;;;;;6.90;3.42;;;;;;;11.15;84.29;100533.22;5049096;28;20420;-72
2022/12/25 01:23:43;;;;;;;5.25;2.50;;;;;;;11.17;84.09;100530.22;5050385;28;20393;-72
2022/12/25 01:26:11;;;;;;;4.78;2.35;;;;;;;11.18;84.10;100527.28;5050267;28;20402;-72
2022/12/25 01:28:37;;;;;;;6.90;2.30;;;;;;;11.21;84.28;100532.22;5049484;28;20393;-73
2022/12/25 01:31:03;;;;;;;3.85;1.90;;;;;;;11.21;84.16;100524.09;5050140;28;20571;-72
2022/12/25 01:33:28;;;;;;;4.03;1.38;;;;;;;11.23;84.17;100526.56;5043837;28;20393;-72
2022/12/25 01:35:54;;;;;;;3.83;1.48;;;;;;;11.21;84.18;100520.53;5042608;28;20413;-72
2022/12/25 01:38:20;;;;;;;8.32;1.60;;;;;;;11.19;84.36;100523.53;5050192;28;20385;-72
2022/12/25 01:40:45;;;;;;;3.85;1.75;;;;;;;11.19;84.36;100520.81;5049056;28;20392;-72
2022/12/25 01:43:22;;;;;;;8.10;2.07;;;;;;;11.21;84.15;100531.41;5050136;28;20820;-72
2022/12/25 01:45:48;;;;;;;3.17;1.27;;;;;;;11.20;84.39;100538.72;5049989;28;20772;-72
2022/12/25 01:48:22;;;;;;;4.22;1.50;;;;;;;11.21;84.40;100542.25;5035220;28;20402;-72
2022/12/25 01:50:57;;;;;;;6.20;1.33;;;;;;;11.21;84.18;100542.25;5021101;28;20752;-72
2022/12/25 01:53:23;;;;;;;6.78;1.75;;;;;;;11.24;84.29;100539.03;5053668;28;20384;-72
2022/12/25 01:55:55;;;;;;;6.10;1.80;;;;;;;11.23;84.52;100526.56;5053741;28;20433;-72
2022/12/25 01:58:20;;;;;;;5.90;1.60;;;;;;;11.18;84.52;100513.72;5052658;28;20817;-72
2022/12/25 02:00:46;;;;;;;6.53;1.90;;;;;;;11.13;84.54;100508.22;5053673;28;20390;-72
2022/12/25 02:03:12;;;;;;;3.20;1.75;;;;;;;11.11;84.61;100513.06;5047131;28;20397;-72
2022/12/25 02:05:38;;;;;;;5.10;2.33;;;;;;;11.10;84.61;100516.84;5053393;28;20381;-72
2022/12/25 02:08:08;;;;;;;6.83;3.17;;;;;;;11.11;84.59;100513.06;5052515;28;20874;-72
2022/12/25 02:10:33;;;;;;;9.47;5.30;;;;;;;11.09;84.92;100514.38;5053586;28;20467;-72
2022/12/25 02:13:00;;;;;;;9.37;4.87;;;;;;;11.10;84.84;100518.75;5052763;28;20873;-73
2022/12/25 02:15:33;;;;;;;9.02;4.00;;;;;;;11.08;84.62;100513.56;5053407;28;20448;-73
2022/12/25 02:18:09;;;;;;;8.02;4.00;;;;;;;11.07;84.91;100511.91;5035585;28;20422;-72
2022/12/25 02:21:11;;;;;;;8.18;3.85;;;;;;;11.07;84.88;100520.03;5053258;28;20393;-72
2022/12/25 02:24:10;;;;;;;8.23;3.55;;;;;;;11.08;84.91;100523.59;5045749;28;20410;-72
2022/12/25 02:27:01;;;;;;;7.25;3.60;;;;;;;11.06;84.90;100512.19;5030454;28;20385;-72
2022/12/25 02:29:48;;;;;;;5.97;3.22;;;;;;;11.05;85.07;100518.66;5053029;28;20386;-72
2022/12/25 02:32:24;;;;;;;7.20;3.07;;;;;;;11.05;85.00;100511.34;5026146;28;20398;-72
2022/12/25 02:34:57;;;;;;;8.57;3.15;;;;;;;11.05;85.09;100505.94;5052965;28;20401;-72
2022/12/25 02:37:51;;;;;;;7.60;2.78;;;;;;;11.02;85.06;100494.75;5052864;28;20445;-72
2022/12/25 02:40:27;;;;;;;3.92;2.70;;;;;;;10.99;85.00;100504.19;5033986;28;20937;-72
2022/12/25 03:08:17;;;;;;;7.65;2.17;;;;;;;10.71;85.81;100458.16;5043862;28;20539;-72
2022/12/25 03:13:35;;;;;;;3.72;1.73;;;;;;;10.70;85.82;100467.38;5052230;28;20450;-72
2022/12/25 03:18:45;;;;;;;3.80;2.17;;;;;;;10.74;85.89;100471.22;5051273;28;20440;-72
2022/12/25 03:26:56;;;;;;;7.32;3.20;;;;;;;10.83;85.60;100462.44;5050989;28;20397;-72
2022/12/25 03:32:29;;;;;;;18.05;5.07;;;;;;;10.87;85.65;100473.63;5040929;28;20417;-72
2022/12/25 03:35:22;;;;;;;12.40;4.50;;;;;;;10.87;85.71;100468.19;5051148;28;20407;-73
2022/12/25 04:37:28;;;;;;;6.45;3.15;;;;;;;10.71;86.27;100406.66;5049655;28;20420;-72
2022/12/25 04:39:53;;;;;;;5.22;2.85;;;;;;;10.64;86.17;100404.13;5050723;28;20393;-72
2022/12/25 04:42:18;;;;;;;3.60;2.63;;;;;;;10.59;86.47;100392.41;5046125;28;20391;-72
2022/12/25 04:44:44;;;;;;;7.88;2.22;;;;;;;10.51;86.32;100388.19;5040846;28;20444;-72
2022/12/25 04:47:09;;;;;;;5.00;2.20;;;;;;;10.46;86.65;100392.72;5050593;28;20381;-72
2022/12/25 04:49:34;;;;;;;4.68;2.20;;;;;;;10.40;86.67;100392.66;5035165;28;20884;-72
2022/12/25 04:51:59;;;;;;;3.80;1.87;;;;;;;10.38;86.71;100408.31;5050611;28;20443;-72
2022/12/25 04:54:25;;;;;;;9.43;2.00;;;;;;;10.36;86.80;100406.91;5050397;28;20741;-72
2022/12/25 04:56:50;;;;;;;6.67;2.07;;;;;;;10.34;86.69;100409.84;5050466;28;20471;-72
2022/12/25 04:59:15;;;;;;;4.53;1.80;;;;;;;10.34;86.97;100404.44;5049643;28;20386;-72
2022/12/25 05:01:40;;;;;;;4.70;1.90;;;;;;;10.37;86.96;100403.16;5050530;28;20476;-72
2022/12/25 05:04:06;;;;;;;5.27;2.10;;;;;;;10.38;86.98;100396.66;5044024;28;20405;-72
2022/12/25 05:06:31;;;;;;;3.93;1.90;;;;;;;10.38;86.57;100394.75;5049289;28;20399;-72
2022/12/25 05:08:56;;;;;;;5.27;2.03;;;;;;;10.41;86.66;100391.56;5049396;28;20389;-72
2022/12/25 05:11:22;;;;;;;4.33;1.80;;;;;;;10.41;86.47;100385.31;5049243;28;20394;-72
2022/12/25 05:13:47;;;;;;;4.40;2.33;;;;;;;10.40;86.45;100389.94;5050603;28;20737;-72
2022/12/25 05:16:15;;;;;;;4.67;2.57;;;;;;;10.40;86.45;100389.13;5050454;28;20488;-72
2022/12/25 05:18:41;;;;;;;4.70;2.17;;;;;;;10.38;86.56;100385.81;5035269;28;20391;-72
2022/12/25 05:21:06;;;;;;;8.63;2.40;;;;;;;10.39;86.39;100390.16;5036170;28;20492;-72
2022/12/25 05:23:32;;;;;;;5.15;1.88;;;;;;;10.39;86.57;100377.44;5050274;28;20480;-72
2022/12/25 05:25:58;;;;;;;3.78;2.00;;;;;;;10.39;86.71;100376.63;5052409;28;20377;-73
2022/12/25 05:28:23;;;;;;;7.32;2.17;;;;;;;10.39;86.59;100382.03;5054346;28;20396;-72
2022/12/25 05:30:49;;;;;;;4.03;2.20;;;;;;;10.40;86.43;100370.16;5052065;28;20402;-72
2022/12/25 05:33:14;;;;;;;2.80;2.23;;;;;;;10.39;86.48;100373.91;5046555;28;20484;-72
2022/12/25 05:35:40;;;;;;;5.50;2.43;;;;;;;10.34;86.27;100368.44;5054148;28;20393;-72
2022/12/25 05:38:06;;;;;;;4.53;2.30;;;;;;;10.31;86.71;100372.44;5053933;28;20458;-72
2022/12/25 05:40:33;;;;;;;4.20;2.20;;;;;;;10.34;86.41;100373.84;5052894;28;20425;-72
2022/12/25 05:42:58;;;;;;;7.07;2.38;;;;;;;10.35;86.44;100364.63;5053985;28;20883;-72
2022/12/25 05:45:23;;;;;;;4.13;2.40;;;;;;;10.36;86.36;100366.28;5053861;28;20406;-72
2022/12/25 05:47:49;;;;;;;4.53;2.10;;;;;;;10.37;86.36;100366.03;5039767;28;20475;-72
2022/12/25 05:50:14;;;;;;;5.33;2.93;;;;;;;10.36;86.45;100364.41;5050398;28;20400;-72
2022/12/25 05:52:39;;;;;;;4.93;2.30;;;;;;;10.37;86.19;100352.47;5053815;28;20397;-72
2022/12/25 05:55:05;;;;;;;4.55;2.33;;;;;;;10.37;86.35;100354.41;5053774;28;20393;-72
2022/12/25 05:57:31;;;;;;;2.70;2.17;;;;;;;10.36;86.47;100347.31;5045834;28;20426;-72
2022/12/25 05:59:56;;;;;;;5.27;2.50;;;;;;;10.36;86.36;100341.91;5049080;28;20730;-72
2022/12/25 06:02:22;;;;;;;8.10;2.30;;;;;;;10.33;86.43;100343.22;5045345;28;20818;-72
2022/12/25 06:04:48;;;;;;;6.15;2.38;;;;;;;10.33;86.47;100354.06;5053580;28;20861;-72
2022/12/25 06:07:13;;;;;;;2.30;1.87;;;;;;;10.35;86.51;100351.09;5053575;28;20409;-72
2022/12/25 06:09:38;;;;;;;4.80;2.30;;;;;;;10.34;86.45;100349.47;5053765;28;20887;-72
2022/12/25 06:12:04;;;;;;;7.10;2.70;;;;;;;10.32;86.58;100346.16;5052401;28;20419;-72
2022/12/25 06:14:29;;;;;;;7.03;2.63;;;;;;;10.32;86.82;100346.16;5050420;28;20572;-73
2022/12/25 06:16:54;;;;;;;7.63;2.43;;;;;;;10.32;86.51;100344.28;5043764;28;20456;-72
2022/12/25 06:19:20;;;;;;;8.17;3.13;;;;;;;10.34;86.62;100344.06;5053237;28;20831;-73
2022/12/25 06:21:45;;;;;;;5.85;2.50;;;;;;;10.34;86.53;100339.44;5052285;28;20386;-73
2022/12/25 06:24:10;;;;;;;6.53;2.73;;;;;;;10.36;86.65;100339.19;5053236;28;20440;-72
2022/12/25 06:26:36;;;;;;;4.13;2.83;;;;;;;10.36;86.49;100333.78;5053289;28;20423;-72
2022/12/25 06:29:01;;;;;;;5.77;2.67;;;;;;;10.36;86.57;100339.19;5051854;28;20895;-72
2022/12/25 06:31:27;;;;;;;6.73;3.40;;;;;;;10.37;86.44;100330.00;5049396;28;20394;-72
2022/12/25 06:33:52;;;;;;;6.50;2.93;;;;;;;10.38;86.63;100340.59;5052569;28;20401;-72
2022/12/25 06:36:20;;;;;;;8.87;2.63;;;;;;;10.39;86.50;100338.69;5052790;28;20405;-72
2022/12/25 06:38:45;;;;;;;6.10;2.17;;;;;;;10.42;86.38;100346.34;5052281;28;20430;-72
2022/12/25 06:41:17;;;;;;;8.93;2.40;;;;;;;10.43;86.35;100347.16;5052971;28;20466;-72
2022/12/25 06:43:42;;;;;;;10.15;2.58;;;;;;;10.44;86.36;100354.22;5038634;28;20981;-72
2022/12/25 06:46:10;;;;;;;5.87;2.27;;;;;;;10.46;86.33;100362.91;5028821;28;20427;-72
2022/12/25 06:48:37;;;;;;;4.93;2.20;;;;;;;10.46;86.52;100346.66;5037143;28;20403;-72
2022/12/25 06:51:03;;;;;;;6.30;3.15;;;;;;;10.47;86.26;100361.88;5037262;28;20759;-72
2022/12/25 06:53:29;;;;;;;7.53;3.47;;;;;;;10.43;86.52;100352.56;5040704;28;20469;-72
2022/12/25 06:56:09;;;;;;;9.68;5.13;;;;;;;10.45;86.44;100353.13;5040178;28;20421;-72
2022/12/25 06:58:34;;;;;;;13.20;6.32;;;;;;;10.41;86.99;100363.66;5038688;28;20391;-72
2022/12/25 07:00:59;;;;;;;11.23;6.93;;;;;;;10.40;86.43;100359.31;5038978;28;20449;-72
2022/12/25 07:03:28;;;;;;;10.17;6.20;;;;;;;10.40;86.59;100359.31;5043104;28;20393;-72
2022/12/25 07:05:53;;;;;;;10.88;5.55;;;;;;;10.42;86.63;100351.75;5042365;28;20463;-72
2022/12/25 07:08:18;;;;;;;9.03;5.17;;;;;;;10.43;86.63;100352.56;5032860;28;20404;-72
2022/12/25 07:10:44;;;;;;;7.78;5.13;;;;;;;10.46;86.27;100352.09;5040709;28;20399;-72
2022/12/25 07:13:09;;;;;;;6.10;3.77;;;;;;;10.46;86.44;100346.66;5032879;28;21190;-72
2022/12/25 07:15:34;;;;;;;6.07;3.35;;;;;;;10.46;86.49;100339.38;5033358;28;20399;-72
2022/12/25 07:17:59;;;;;;;6.07;3.10;;;;;;;10.44;86.44;100322.50;5033394;28;20425;-72
2022/12/25 07:20:25;;;;;;;7.22;3.00;;;;;;;10.46;86.58;100322.28;5033838;28;20465;-73
2022/12/25 07:22:50;;;;;;;6.88;3.60;;;;;;;10.46;86.41;100319.56;5035969;28;20407;-72
2022/12/25 07:25:16;;;;;;;5.23;3.03;;;;;;;10.44;86.39;100322.50;5034683;28;20403;-72
2022/12/25 07:27:41;;;;;;;7.80;3.93;;;;;;;10.45;86.45;100328.75;5035220;28;20415;-72
2022/12/25 07:30:07;;;;;;;10.83;5.77;;;;;;;10.46;86.40;100322.28;5035148;28;20774;-72
2022/12/25 07:32:32;;;;;;;9.63;5.22;;;;;;;10.47;86.19;100323.94;5036496;28;20411;-72
2022/12/25 07:34:57;;;;;;;10.75;4.80;;;;;;;10.45;86.37;100328.75;5039174;28;20756;-73
2022/12/25 07:37:23;;;;;;;5.93;3.70;;;;;;;10.45;86.29;100328.75;5036527;28;20469;-72
2022/12/25 07:39:48;;;;;;;6.63;4.32;;;;;;;10.45;86.50;100329.59;5037088;28;20954;-72
2022/12/25 07:42:13;;;;;;;5.10;4.00;;;;;;;10.45;86.41;100323.34;5034799;28;20410;-72
2022/12/25 07:44:39;;;;;;;8.88;4.60;;;;;;;10.45;86.39;100335.00;5041058;28;20405;-72
2022/12/25 07:47:04;;;;;;;5.97;3.27;;;;;;;10.45;86.43;100334.19;5040874;28;20404;-72
2022/12/25 07:49:29;;;;;;;8.75;4.13;;;;;;;10.43;86.29;100341.75;5037763;28;20490;-72
2022/12/25 07:51:55;;;;;;;7.80;3.70;;;;;;;10.45;86.61;100345.00;5037817;28;20410;-72
2022/12/25 07:54:20;;;;;;;5.43;3.80;;;;;;;10.46;86.51;100347.50;5041104;28;20406;-72
2022/12/25 07:56:49;;;;;;;5.60;3.37;;;;;;;10.48;86.53;100347.22;5037803;28;20418;-72
2022/12/25 07:59:14;;;;;;;6.53;4.03;;;;;;;10.49;86.39;100351.59;5031874;28;20548;-72
2022/12/25 08:01:40;;;;;;;8.23;4.77;;;;;;;10.47;86.57;100354.56;5032421;28;20407;-72
2022/12/25 08:04:07;;;;;;;11.00;5.30;;;;;;;10.51;86.40;100358.38;5033471;28;20399;-72
2022/12/25 08:06:34;;;;;;;8.55;5.22;;;;;;;10.52;86.42;100360.03;5033103;28;20411;-72
2022/12/25 08:09:11;;;;;;;7.18;4.18;;;;;;;10.55;86.41;100354.13;5033752;28;20498;-72
2022/12/25 08:11:37;;;;;;;8.80;4.40;;;;;;;10.59;86.46;100363.41;5029874;28;20403;-72
2022/12/25 08:14:07;;;;;;;13.80;6.03;;;;;;;10.64;86.29;100362.66;5035236;28;20923;-72
2022/12/25 08:16:33;;;;;;;9.27;4.75;;;;;;;10.65;86.17;100367.84;5034881;28;20406;-72
2022/12/25 08:18:58;;;;;;;8.20;4.90;;;;;;;10.68;86.15;100371.94;5035256;28;20948;-72
2022/12/25 08:21:23;;;;;;;5.22;4.22;;;;;;;10.70;86.20;100369.81;5035385;28;20416;-72
2022/12/25 08:23:49;;;;;;;9.90;4.97;;;;;;;10.73;86.13;100367.44;5037490;28;20434;-72
2022/12/25 08:26:17;;;;;;;14.70;6.57;;;;;;;10.77;85.78;100360.44;5039376;28;20405;-72
2022/12/25 08:28:42;;;;;;;14.00;8.05;;;;;;;10.78;85.86;100358.53;5036925;28;20403;-72
2022/12/25 08:31:20;;;;;;;10.73;6.30;;;;;;;10.80;85.78;100353.72;5037276;28;20897;-72
2022/12/25 08:33:47;;;;;;;8.75;5.75;;;;;;;10.79;85.79;100336.63;5040009;28;20399;-72
2022/12/25 08:36:12;;;;;;;6.68;3.92;;;;;;;10.62;85.96;100324.16;5041402;28;20433;-72
2022/12/25 08:38:39;;;;;;;15.77;7.57;;;;;;;10.54;86.48;100303.69;5031563;28;20403;-72
2022/12/25 08:41:04;;;;;;;6.00;3.97;;;;;;;10.52;86.41;100294.19;5038739;28;20398;-72
2022/12/25 08:43:30;;;;;;;9.05;3.25;;;;;;;10.60;86.31;100299.19;5038601;28;20399;-72
2022/12/25 08:45:55;;;;;;;7.72;3.97;;;;;;;11.01;85.36;100301.41;5030905;28;20438;-73
2022/12/25 08:48:20;;;;;;;8.60;4.17;;;;;;;11.26;84.42;100304.41;5031779;28;20403;-72
2022/12/25 08:50:51;;;;;;;6.67;3.73;;;;;;;11.37;83.86;100303.47;5032332;28;20504;-72
2022/12/25 08:53:17;;;;;;;8.00;3.53;;;;;;;11.28;83.18;100310.44;5032698;28;20809;-72
2022/12/25 08:55:42;;;;;;;6.73;3.17;;;;;;;11.07;84.08;100311.22;5032063;28;20825;-72
2022/12/25 08:58:08;;;;;;;6.93;3.30;;;;;;;11.08;84.08;100312.06;5033467;28;20503;-72
2022/12/25 09:00:34;;;;;;;6.22;3.30;;;;;;;11.68;82.71;100325.53;5035423;28;20437;-72
2022/12/25 09:02:59;;;;;;;5.27;3.50;;;;;;;11.73;81.46;100325.59;5041461;28;20430;-72
2022/12/25 09:05:25;;;;;;;6.30;4.00;;;;;;;11.52;82.57;100321.00;5044376;28;20492;-72
2022/12/25 09:07:50;;;;;;;7.67;3.50;;;;;;;11.55;82.84;100332.19;5042047;28;20407;-72
2022/12/25 09:10:15;;;;;;;7.23;4.40;;;;;;;11.72;82.72;100332.91;5042301;28;20414;-72
2022/12/25 09:12:41;;;;;;;6.40;4.32;;;;;;;11.85;82.37;100340.69;5042299;28;20399;-73
2022/12/25 09:15:06;;;;;;;8.77;4.03;;;;;;;12.06;81.77;100347.13;5045905;28;20451;-72
2022/12/25 09:17:32;;;;;;;7.60;3.73;;;;;;;12.17;81.35;100342.59;5045563;28;20978;-72
2022/12/25 09:19:58;;;;;;;4.43;3.47;;;;;;;12.26;81.23;100349.19;5043823;28;20905;-72
2022/12/25 09:22:23;;;;;;;10.82;5.43;;;;;;;12.16;81.34;100352.66;5044201;28;20403;-72
2022/12/25 09:24:48;;;;;;;11.70;7.07;;;;;;;12.06;81.66;100352.56;5046389;28;20431;-72
2022/12/25 09:27:13;;;;;;;8.45;5.25;;;;;;;12.08;81.88;100347.69;5048523;28;20401;-72
2022/12/25 09:29:39;;;;;;;8.27;4.73;;;;;;;12.12;81.74;100356.94;5039247;28;20395;-72
2022/12/25 09:32:05;;;;;;;8.02;4.82;;;;;;;12.22;81.44;100354.34;5037487;28;20425;-72
2022/12/25 09:34:31;;;;;;;7.40;4.33;;;;;;;12.20;81.13;100334.75;5038363;28;20824;-72
2022/12/25 09:36:56;;;;;;;4.83;3.33;;;;;;;12.00;81.83;100328.31;5038339;28;20414;-72
2022/12/25 09:39:22;;;;;;;6.13;3.60;;;;;;;11.99;82.36;100332.13;5038596;28;20421;-73
2022/12/25 09:41:50;;;;;;;5.67;3.27;;;;;;;12.17;81.66;100329.84;5038961;28;20762;-73
2022/12/25 09:44:21;;;;;;;6.78;3.63;;;;;;;12.16;82.02;100330.09;5038656;28;20478;-73
2022/12/25 09:46:52;;;;;;;4.85;3.40;;;;;;;12.33;81.42;100326.19;5041299;28;20539;-73
2022/12/25 09:49:32;;;;;;;4.03;3.17;;;;;;;12.73;80.97;100327.56;5040540;28;20867;-73
2022/12/25 09:52:04;;;;;;;6.83;3.40;;;;;;;13.10;79.68;100313.94;5040674;28;20420;-72
2022/12/25 09:54:43;;;;;;;7.25;3.80;;;;;;;13.08;80.04;100313.34;5044413;28;20412;-73
2022/12/25 09:57:13;;;;;;;4.63;3.38;;;;;;;13.02;80.46;100309.78;5035010;28;20433;-73
2022/12/25 09:59:41;;;;;;;5.80;3.38;;;;;;;13.21;80.43;100308.25;5040686;28;20441;-73
2022/12/25 10:02:29;;;;;;;5.35;3.38;;;;;;;13.45;79.66;100312.19;5042814;28;20516;-73
2022/12/25 10:04:59;;;;;;;6.13;3.75;;;;;;;13.76;78.32;100302.19;5043987;28;20405;-72
2022/12/25 10:07:38;;;;;;;5.43;3.33;;;;;;;13.60;78.54;100299.69;5043226;28;20403;-72
2022/12/25 10:10:31;;;;;;;6.55;3.90;;;;;;;13.27;79.27;100293.59;5045894;28;20403;-73
2022/12/25 10:13:04;;;;;;;6.35;5.10;;;;;;;12.97;80.08;100299.69;5041674;28;20405;-72
2022/12/25 10:15:29;;;;;;;7.15;3.30;;;;;;;12.82;80.85;100299.59;5041782;28;20407;-72
2022/12/25 10:18:24;;;;;;;5.47;2.53;;;;;;;12.80;81.01;100298.25;5033538;28;20472;-72
2022/12/25 10:20:52;;;;;;;4.25;2.88;;;;;;;12.83;80.87;100297.72;5034258;28;20766;-72
2022/12/25 10:23:35;;;;;;;4.85;2.92;;;;;;;12.94;80.71;100285.81;5034724;28;20406;-73
2022/12/25 10:26:03;;;;;;;2.73;2.30;;;;;;;13.31;79.58;100278.38;5034345;28;20400;-72
2022/12/25 10:28:42;;;;;;;4.65;2.97;;;;;;;13.82;77.90;100281.22;5035605;28;20407;-73
2022/12/25 10:31:34;;;;;;;6.45;3.58;;;;;;;13.81;77.35;100274.13;5035556;28;22146;-73
2022/12/25 10:34:00;;;;;;;8.70;3.60;;;;;;;13.72;77.42;100278.47;5033042;28;20397;-72
2022/12/25 10:36:28;;;;;;;6.07;3.53;;;;;;;13.74;77.62;100279.84;5036800;28;20465;-73
2022/12/25 10:38:54;;;;;;;6.82;3.40;;;;;;;13.67;77.55;100270.28;5036731;28;20498;-73
2022/12/25 10:42:02;;;;;;;5.85;3.50;;;;;;;13.61;77.70;100271.38;5038036;28;20405;-72
2022/12/25 10:44:27;;;;;;;5.68;3.42;;;;;;;13.51;77.79;100264.81;5031999;28;20403;-72
2022/12/25 10:46:56;;;;;;;6.00;3.70;;;;;;;13.41;77.77;100261.25;5038075;28;20479;-73
2022/12/25 10:49:24;;;;;;;10.63;3.83;;;;;;;13.37;78.40;100265.63;5040454;28;20558;-73
2022/12/25 10:51:50;;;;;;;4.88;3.40;;;;;;;13.40;78.17;100262.34;5043063;28;20522;-73
2022/12/25 10:54:23;;;;;;;2.97;2.50;;;;;;;13.41;77.77;100256.63;5039786;28;20561;-72
2022/12/25 10:57:08;;;;;;;4.03;2.95;;;;;;;13.44;77.67;100249.81;5038917;28;20426;-73
2022/12/25 10:59:40;;;;;;;4.20;2.50;;;;;;;13.43;78.02;100257.19;5026706;28;20460;-72
2022/12/25 11:02:53;;;;;;;7.78;3.55;;;;;;;13.50;77.69;100240.59;5032215;28;20399;-73
2022/12/25 11:05:27;;;;;;;3.17;2.88;;;;;;;13.53;78.04;100240.84;5033228;28;20477;-73
2022/12/25 11:07:54;;;;;;;4.13;2.90;;;;;;;13.60;77.84;100245.25;5033827;28;20477;-73
2022/12/25 11:10:21;;;;;;;2.67;2.20;;;;;;;13.62;77.77;100235.72;5032369;28;20434;-72
2022/12/25 11:12:47;;;;;;;6.07;2.58;;;;;;;13.59;77.72;100228.09;5034680;28;20399;-72
2022/12/25 11:15:38;;;;;;;3.13;1.87;;;;;;;13.58;77.27;100229.16;5034844;28;20463;-72
2022/12/25 11:18:16;;;;;;;3.93;1.80;;;;;;;13.48;77.94;100232.69;5034893;28;20853;-72
2022/12/25 11:20:48;;;;;;;4.32;1.52;;;;;;;13.43;77.79;100213.63;5036709;28;20419;-72
2022/12/25 11:23:19;;;;;;;3.55;1.58;;;;;;;13.48;77.60;100204.66;5037481;28;20393;-72
2022/12/25 11:25:52;;;;;;;1.60;1.40;;;;;;;13.49;77.55;100196.22;5035876;28;20402;-72
2022/12/25 11:28:18;;;;;;;2.55;1.77;;;;;;;13.49;77.59;100192.69;5036666;28;20822;-73
2022/12/25 11:30:48;;;;;;;2.13;1.50;;;;;;;13.60;77.03;100188.84;5038186;28;20435;-73
2022/12/25 11:33:15;;;;;;;2.67;1.63;;;;;;;13.60;77.22;100199.75;5039284;28;20412;-72
2022/12/25 11:35:51;;;;;;;3.03;1.70;;;;;;;13.64;77.17;100198.13;5038077;28;20433;-73
2022/12/25 11:38:17;;;;;;;1.70;1.60;;;;;;;13.71;76.94;100195.97;5038212;28;20515;-72
2022/12/25 11:40:47;;;;;;;2.40;1.50;;;;;;;13.70;77.07;100194.31;5028403;28;20398;-73
2022/12/25 11:43:27;;;;;;;5.13;2.60;;;;;;;13.69;77.02;100194.59;5042131;28;20452;-72
2022/12/25 11:46:10;;;;;;;5.10;1.95;;;;;;;13.64;77.05;100191.84;5039790;28;20774;-73
2022/12/25 11:48:42;;;;;;;3.92;1.88;;;;;;;13.61;77.07;100187.78;5032285;28;20400;-73
2022/12/25 11:51:08;;;;;;;1.90;1.70;;;;;;;13.65;77.15;100179.88;5032612;28;20399;-73
2022/12/25 11:53:38;;;;;;;2.42;1.70;;;;;;;13.69;76.94;100170.91;5032900;28;20422;-73
2022/12/25 11:56:10;;;;;;;3.17;1.60;;;;;;;13.71;76.75;100171.44;5033821;28;20845;-73
2022/12/25 11:58:59;;;;;;;3.43;1.70;;;;;;;13.74;76.67;100170.06;5034553;28;20529;-73
2022/12/25 12:01:44;;;;;;;5.38;2.25;;;;;;;13.71;76.62;100163.28;5034166;28;20407;-73
2022/12/25 12:04:33;;;;;;;3.90;2.08;;;;;;;13.65;76.75;100160.81;5035968;28;20410;-73
2022/12/25 12:07:23;;;;;;;4.57;2.30;;;;;;;13.52;77.29;100154.03;5029750;28;20961;-72
2022/12/25 12:10:25;;;;;;;2.90;2.05;;;;;;;13.39;77.53;100151.84;5033504;28;20473;-72
2022/12/25 12:13:06;;;;;;;3.90;2.05;;;;;;;13.33;77.94;100142.84;5028753;28;20489;-72
2022/12/25 12:15:43;;;;;;;4.68;2.22;;;;;;;13.32;77.83;100149.38;5036856;28;20395;-72
2022/12/25 12:18:27;;;;;;;5.65;2.05;;;;;;;13.30;77.94;100153.47;5035497;28;20907;-73
2022/12/25 12:21:00;;;;;;;2.97;2.10;;;;;;;13.24;78.39;100160.78;5038392;28;20407;-73
2022/12/25 12:23:27;;;;;;;3.03;2.20;;;;;;;13.18;78.67;100166.47;5037742;28;20399;-73
2022/12/25 12:25:53;;;;;;;2.55;2.22;;;;;;;13.09;78.76;100166.19;5031399;28;20411;-73
2022/12/25 12:28:25;;;;;;;4.20;2.20;;;;;;;13.06;78.75;100163.16;5032375;28;20414;-72
2022/12/25 12:31:04;;;;;;;2.10;1.90;;;;;;;13.06;79.13;100157.72;5031182;28;20980;-73
2022/12/25 12:33:41;;;;;;;2.08;1.88;;;;;;;13.07;78.79;100160.19;5032285;28;20411;-73
2022/12/25 12:36:11;;;;;;;2.35;2.08;;;;;;;13.04;79.13;100160.69;5026004;28;20765;-73
2022/12/25 12:38:39;;;;;;;3.95;1.90;;;;;;;13.04;79.26;100157.19;5034254;28;20837;-73
2022/12/25 12:41:07;;;;;;;2.40;1.70;;;;;;;13.06;79.49;100161.25;5033146;28;20411;-73
2022/12/25 12:43:47;;;;;;;2.10;1.90;;;;;;;13.06;79.43;100152.28;5036637;28;20500;-73
2022/12/25 12:46:31;;;;;;;2.85;2.00;;;;;;;13.05;79.21;100139.75;5026893;28;20426;-73
2022/12/25 12:49:19;;;;;;;3.03;1.90;;;;;;;13.06;79.13;100133.25;5036216;28;20897;-73
2022/12/25 12:51:44;;;;;;;4.72;1.80;;;;;;;13.07;78.69;100127.53;5036521;28;20462;-73
2022/12/25 12:54:19;;;;;;;2.55;1.80;;;;;;;13.07;78.93;100124.81;5038366;28;20397;-73
2022/12/25 12:56:59;;;;;;;2.55;2.20;;;;;;;13.05;78.96;100137.84;5038498;28;20501;-73
2022/12/25 12:59:31;;;;;;;3.63;2.30;;;;;;;13.04;79.27;100135.41;5023612;28;20437;-73
2022/12/25 13:02:35;;;;;;;4.30;2.15;;;;;;;13.04;78.94;100129.97;5031783;28;20402;-73
2022/12/25 13:05:34;;;;;;;3.28;2.15;;;;;;;13.05;79.43;100135.13;5032489;28;20399;-73
2022/12/25 13:08:12;;;;;;;2.40;1.90;;;;;;;13.07;79.35;100135.72;5029521;28;20462;-73
2022/12/25 13:10:42;;;;;;;3.20;2.40;;;;;;;13.18;79.10;100140.09;5030157;28;20878;-73
2022/12/25 13:13:17;;;;;;;6.10;3.03;;;;;;;13.30;78.82;100135.22;5037789;28;20466;-73
2022/12/25 13:15:46;;;;;;;7.80;4.45;;;;;;;13.40;78.51;100145.31;5028046;28;20403;-73
2022/12/25 13:18:12;;;;;;;10.43;4.75;;;;;;;13.49;78.06;100158.09;5035976;28;20426;-73
2022/12/25 13:20:53;;;;;;;3.97;3.05;;;;;;;13.63;78.14;100157.56;5037058;28;20399;-73